sensor_id;sensor_type;location;lat;lon;timestamp;P1;durP1;ratioP1;P2;durP2;ratioP2
55076;SDS011;40971;44.702;11.030;2022-11-15T00:00:48;56.67;;;22.90;;
55076;SDS011;40971;44.702;11.030;2022-11-15T00:03:14;56.88;;;21.15;;
55076;SDS011;40971;44.702;11.030;2022-11-15T00:05:40;54.10;;;21.50;;
55076;SDS011;40971;44.702;11.030;2022-11-15T00:08:06;59.30;;;20.85;;
55076;SDS011;40971;44.702;11.030;2022-11-15T00:10:32;52.75;;;19.48;;
55076;SDS011;40971;44.702;11.030;2022-11-15T00:12:57;59.38;;;19.48;;
55076;SDS011;40971;44.702;11.030;2022-11-15T00:15:23;55.50;;;19.30;;
55076;SDS011;40971;44.702;11.030;2022-11-15T00:17:49;57.22;;;20.45;;
55076;SDS011;40971;44.702;11.030;2022-11-15T00:20:15;60.00;;;19.73;;
55076;SDS011;40971;44.702;11.030;2022-11-15T00:22:41;47.30;;;18.10;;
55076;SDS011;40971;44.702;11.030;2022-11-15T00:25:06;51.40;;;18.70;;
55076;SDS011;40971;44.702;11.030;2022-11-15T00:27:32;48.90;;;17.92;;
55076;SDS011;40971;44.702;11.030;2022-11-15T00:29:57;57.05;;;17.27;;
55076;SDS011;40971;44.702;11.030;2022-11-15T00:32:23;46.60;;;17.55;;
55076;SDS011;40971;44.702;11.030;2022-11-15T00:34:48;39.00;;;16.27;;
55076;SDS011;40971;44.702;11.030;2022-11-15T00:37:13;52.33;;;18.05;;
55076;SDS011;40971;44.702;11.030;2022-11-15T00:39:39;53.53;;;18.13;;
55076;SDS011;40971;44.702;11.030;2022-11-15T00:42:04;44.05;;;17.40;;
55076;SDS011;40971;44.702;11.030;2022-11-15T00:44:30;49.70;;;16.65;;
55076;SDS011;40971;44.702;11.030;2022-11-15T00:46:55;44.95;;;16.40;;
55076;SDS011;40971;44.702;11.030;2022-11-15T00:49:20;41.60;;;16.25;;
55076;SDS011;40971;44.702;11.030;2022-11-15T00:51:46;39.85;;;15.45;;
55076;SDS011;40971;44.702;11.030;2022-11-15T00:54:11;41.45;;;14.35;;
55076;SDS011;40971;44.702;11.030;2022-11-15T00:56:36;37.50;;;15.35;;
55076;SDS011;40971;44.702;11.030;2022-11-15T00:59:02;43.03;;;15.82;;
55076;SDS011;40971;44.702;11.030;2022-11-15T01:01:27;46.33;;;15.60;;
55076;SDS011;40971;44.702;11.030;2022-11-15T01:03:53;40.40;;;15.27;;
55076;SDS011;40971;44.702;11.030;2022-11-15T01:06:18;35.47;;;13.05;;
55076;SDS011;40971;44.702;11.030;2022-11-15T01:08:44;43.67;;;15.80;;
55076;SDS011;40971;44.702;11.030;2022-11-15T01:11:10;44.88;;;15.85;;
55076;SDS011;40971;44.702;11.030;2022-11-15T01:13:37;37.35;;;12.90;;
55076;SDS011;40971;44.702;11.030;2022-11-15T01:16:08;41.08;;;14.77;;
55076;SDS011;40971;44.702;11.030;2022-11-15T01:18:35;43.50;;;15.35;;
55076;SDS011;40971;44.702;11.030;2022-11-15T01:21:11;37.85;;;14.57;;
55076;SDS011;40971;44.702;11.030;2022-11-15T01:23:37;32.92;;;14.43;;
55076;SDS011;40971;44.702;11.030;2022-11-15T01:26:04;44.38;;;15.30;;
55076;SDS011;40971;44.702;11.030;2022-11-15T01:28:34;37.80;;;13.60;;
55076;SDS011;40971;44.702;11.030;2022-11-15T01:31:01;36.47;;;14.63;;
55076;SDS011;40971;44.702;11.030;2022-11-15T01:33:28;40.30;;;14.63;;
55076;SDS011;40971;44.702;11.030;2022-11-15T01:35:55;36.45;;;14.20;;
55076;SDS011;40971;44.702;11.030;2022-11-15T01:38:21;36.03;;;13.38;;
55076;SDS011;40971;44.702;11.030;2022-11-15T01:40:47;45.30;;;15.38;;
55076;SDS011;40971;44.702;11.030;2022-11-15T01:45:45;39.97;;;14.43;;
55076;SDS011;40971;44.702;11.030;2022-11-15T01:48:14;43.00;;;15.30;;
55076;SDS011;40971;44.702;11.030;2022-11-15T01:50:40;40.97;;;16.48;;
55076;SDS011;40971;44.702;11.030;2022-11-15T01:53:05;47.55;;;16.98;;
55076;SDS011;40971;44.702;11.030;2022-11-15T01:55:31;34.40;;;14.02;;
55076;SDS011;40971;44.702;11.030;2022-11-15T01:57:59;44.47;;;16.38;;
55076;SDS011;40971;44.702;11.030;2022-11-15T02:00:27;37.30;;;12.68;;
55076;SDS011;40971;44.702;11.030;2022-11-15T02:02:53;38.95;;;14.35;;
55076;SDS011;40971;44.702;11.030;2022-11-15T02:05:19;49.00;;;16.33;;
55076;SDS011;40971;44.702;11.030;2022-11-15T02:07:45;37.90;;;14.65;;
55076;SDS011;40971;44.702;11.030;2022-11-15T02:10:19;43.47;;;14.35;;
55076;SDS011;40971;44.702;11.030;2022-11-15T02:12:47;44.60;;;15.27;;
55076;SDS011;40971;44.702;11.030;2022-11-15T02:15:14;36.72;;;14.35;;
55076;SDS011;40971;44.702;11.030;2022-11-15T02:33:49;44.95;;;16.92;;
55076;SDS011;40971;44.702;11.030;2022-11-15T02:41:39;44.45;;;14.20;;
55076;SDS011;40971;44.702;11.030;2022-11-15T02:44:26;45.60;;;15.55;;
55076;SDS011;40971;44.702;11.030;2022-11-15T02:47:01;41.58;;;15.18;;
55076;SDS011;40971;44.702;11.030;2022-11-15T02:49:41;45.75;;;16.60;;
55076;SDS011;40971;44.702;11.030;2022-11-15T02:52:14;42.95;;;14.95;;
55076;SDS011;40971;44.702;11.030;2022-11-15T02:54:42;39.85;;;14.48;;
55076;SDS011;40971;44.702;11.030;2022-11-15T02:57:16;46.50;;;14.88;;
55076;SDS011;40971;44.702;11.030;2022-11-15T03:08:40;37.25;;;14.88;;
55076;SDS011;40971;44.702;11.030;2022-11-15T03:11:17;41.92;;;14.23;;
55076;SDS011;40971;44.702;11.030;2022-11-15T03:19:28;47.08;;;14.00;;
55076;SDS011;40971;44.702;11.030;2022-11-15T03:21:57;42.72;;;13.98;;
55076;SDS011;40971;44.702;11.030;2022-11-15T03:24:28;31.23;;;12.40;;
55076;SDS011;40971;44.702;11.030;2022-11-15T03:26:55;34.25;;;13.93;;
55076;SDS011;40971;44.702;11.030;2022-11-15T03:29:26;32.13;;;13.15;;
55076;SDS011;40971;44.702;11.030;2022-11-15T03:31:57;29.17;;;12.10;;
55076;SDS011;40971;44.702;11.030;2022-11-15T03:34:27;38.95;;;12.43;;
55076;SDS011;40971;44.702;11.030;2022-11-15T03:36:56;33.72;;;12.48;;
55076;SDS011;40971;44.702;11.030;2022-11-15T03:39:22;32.25;;;13.20;;
55076;SDS011;40971;44.702;11.030;2022-11-15T03:47:06;36.72;;;14.32;;
55076;SDS011;40971;44.702;11.030;2022-11-15T03:49:33;48.65;;;15.23;;
55076;SDS011;40971;44.702;11.030;2022-11-15T03:52:00;47.13;;;17.27;;
55076;SDS011;40971;44.702;11.030;2022-11-15T03:54:28;54.28;;;16.77;;
55076;SDS011;40971;44.702;11.030;2022-11-15T03:56:54;48.42;;;16.00;;
55076;SDS011;40971;44.702;11.030;2022-11-15T03:59:29;40.90;;;16.48;;
55076;SDS011;40971;44.702;11.030;2022-11-15T04:01:59;48.22;;;16.42;;
55076;SDS011;40971;44.702;11.030;2022-11-15T04:04:24;43.38;;;16.30;;
55076;SDS011;40971;44.702;11.030;2022-11-15T04:06:50;42.33;;;15.52;;
55076;SDS011;40971;44.702;11.030;2022-11-15T04:09:15;47.47;;;16.15;;
55076;SDS011;40971;44.702;11.030;2022-11-15T04:11:41;48.00;;;18.92;;
55076;SDS011;40971;44.702;11.030;2022-11-15T04:14:06;48.75;;;18.95;;
55076;SDS011;40971;44.702;11.030;2022-11-15T04:16:31;47.67;;;17.05;;
55076;SDS011;40971;44.702;11.030;2022-11-15T04:18:57;45.47;;;16.42;;
55076;SDS011;40971;44.702;11.030;2022-11-15T04:21:45;35.25;;;13.13;;
55076;SDS011;40971;44.702;11.030;2022-11-15T04:24:29;42.95;;;12.82;;
55076;SDS011;40971;44.702;11.030;2022-11-15T04:26:55;26.45;;;11.27;;
55076;SDS011;40971;44.702;11.030;2022-11-15T04:29:20;32.50;;;12.23;;
55076;SDS011;40971;44.702;11.030;2022-11-15T04:32:04;44.80;;;14.60;;
55076;SDS011;40971;44.702;11.030;2022-11-15T04:34:31;31.70;;;12.15;;
55076;SDS011;40971;44.702;11.030;2022-11-15T04:36:58;42.28;;;15.70;;
55076;SDS011;40971;44.702;11.030;2022-11-15T04:39:41;44.60;;;15.18;;
55076;SDS011;40971;44.702;11.030;2022-11-15T04:42:12;35.08;;;13.48;;
55076;SDS011;40971;44.702;11.030;2022-11-15T04:44:39;45.55;;;14.95;;
55076;SDS011;40971;44.702;11.030;2022-11-15T04:47:04;47.53;;;14.20;;
55076;SDS011;40971;44.702;11.030;2022-11-15T04:49:30;44.25;;;16.83;;
55076;SDS011;40971;44.702;11.030;2022-11-15T04:51:56;55.25;;;19.52;;
55076;SDS011;40971;44.702;11.030;2022-11-15T04:54:21;52.42;;;18.98;;
55076;SDS011;40971;44.702;11.030;2022-11-15T04:56:47;56.08;;;18.60;;
55076;SDS011;40971;44.702;11.030;2022-11-15T04:59:14;57.90;;;20.10;;
55076;SDS011;40971;44.702;11.030;2022-11-15T05:01:40;48.50;;;17.42;;
55076;SDS011;40971;44.702;11.030;2022-11-15T05:04:05;46.17;;;17.88;;
55076;SDS011;40971;44.702;11.030;2022-11-15T05:06:46;46.70;;;15.82;;
55076;SDS011;40971;44.702;11.030;2022-11-15T05:09:14;42.33;;;17.75;;
55076;SDS011;40971;44.702;11.030;2022-11-15T05:11:41;43.40;;;16.63;;
55076;SDS011;40971;44.702;11.030;2022-11-15T05:14:08;42.33;;;14.38;;
55076;SDS011;40971;44.702;11.030;2022-11-15T05:16:35;43.45;;;15.98;;
55076;SDS011;40971;44.702;11.030;2022-11-15T05:19:01;40.60;;;15.60;;
55076;SDS011;40971;44.702;11.030;2022-11-15T05:21:26;45.92;;;16.80;;
55076;SDS011;40971;44.702;11.030;2022-11-15T05:23:52;48.65;;;16.10;;
55076;SDS011;40971;44.702;11.030;2022-11-15T05:26:17;45.20;;;15.40;;
55076;SDS011;40971;44.702;11.030;2022-11-15T05:28:43;41.45;;;14.95;;
55076;SDS011;40971;44.702;11.030;2022-11-15T05:31:11;42.13;;;16.55;;
55076;SDS011;40971;44.702;11.030;2022-11-15T05:33:39;47.83;;;16.73;;
55076;SDS011;40971;44.702;11.030;2022-11-15T05:36:06;43.08;;;16.25;;
55076;SDS011;40971;44.702;11.030;2022-11-15T05:38:37;41.33;;;15.13;;
55076;SDS011;40971;44.702;11.030;2022-11-15T05:41:03;38.05;;;15.98;;
55076;SDS011;40971;44.702;11.030;2022-11-15T05:43:30;52.00;;;14.77;;
55076;SDS011;40971;44.702;11.030;2022-11-15T05:45:59;41.88;;;14.20;;
55076;SDS011;40971;44.702;11.030;2022-11-15T05:48:27;42.13;;;15.13;;
55076;SDS011;40971;44.702;11.030;2022-11-15T05:50:52;38.20;;;13.93;;
55076;SDS011;40971;44.702;11.030;2022-11-15T05:53:18;44.03;;;15.90;;
55076;SDS011;40971;44.702;11.030;2022-11-15T05:55:45;45.10;;;17.05;;
55076;SDS011;40971;44.702;11.030;2022-11-15T05:58:11;36.70;;;13.68;;
55076;SDS011;40971;44.702;11.030;2022-11-15T06:00:37;40.20;;;15.15;;
55076;SDS011;40971;44.702;11.030;2022-11-15T06:03:02;43.10;;;14.80;;
55076;SDS011;40971;44.702;11.030;2022-11-15T06:05:28;42.33;;;15.80;;
55076;SDS011;40971;44.702;11.030;2022-11-15T06:07:56;45.53;;;16.55;;
55076;SDS011;40971;44.702;11.030;2022-11-15T06:10:24;56.63;;;16.90;;
55076;SDS011;40971;44.702;11.030;2022-11-15T06:12:59;44.88;;;15.60;;
55076;SDS011;40971;44.702;11.030;2022-11-15T06:15:26;44.42;;;15.57;;
55076;SDS011;40971;44.702;11.030;2022-11-15T06:17:56;36.90;;;14.95;;
55076;SDS011;40971;44.702;11.030;2022-11-15T06:20:23;66.45;;;17.10;;
55076;SDS011;40971;44.702;11.030;2022-11-15T06:22:49;52.70;;;16.90;;
55076;SDS011;40971;44.702;11.030;2022-11-15T06:25:14;44.05;;;15.15;;
55076;SDS011;40971;44.702;11.030;2022-11-15T06:27:40;52.70;;;18.02;;
55076;SDS011;40971;44.702;11.030;2022-11-15T06:30:05;51.50;;;15.52;;
55076;SDS011;40971;44.702;11.030;2022-11-15T06:32:32;47.65;;;15.77;;
55076;SDS011;40971;44.702;11.030;2022-11-15T06:34:58;64.40;;;15.55;;
55076;SDS011;40971;44.702;11.030;2022-11-15T06:37:23;43.42;;;15.48;;
55076;SDS011;40971;44.702;11.030;2022-11-15T06:39:48;54.30;;;16.13;;
55076;SDS011;40971;44.702;11.030;2022-11-15T06:42:14;52.15;;;15.80;;
55076;SDS011;40971;44.702;11.030;2022-11-15T06:44:39;66.03;;;15.98;;
55076;SDS011;40971;44.702;11.030;2022-11-15T06:47:05;51.53;;;17.25;;
55076;SDS011;40971;44.702;11.030;2022-11-15T06:49:30;46.30;;;14.23;;
55076;SDS011;40971;44.702;11.030;2022-11-15T06:51:55;39.55;;;15.88;;
55076;SDS011;40971;44.702;11.030;2022-11-15T06:54:21;41.55;;;15.70;;
55076;SDS011;40971;44.702;11.030;2022-11-15T06:56:47;42.92;;;14.75;;
55076;SDS011;40971;44.702;11.030;2022-11-15T06:59:12;39.00;;;15.18;;
55076;SDS011;40971;44.702;11.030;2022-11-15T07:01:38;45.25;;;14.93;;
55076;SDS011;40971;44.702;11.030;2022-11-15T07:04:03;51.42;;;17.67;;
55076;SDS011;40971;44.702;11.030;2022-11-15T07:06:29;41.25;;;15.68;;
55076;SDS011;40971;44.702;11.030;2022-11-15T07:08:54;45.67;;;16.08;;
55076;SDS011;40971;44.702;11.030;2022-11-15T07:11:20;44.50;;;15.93;;
55076;SDS011;40971;44.702;11.030;2022-11-15T07:13:45;42.75;;;16.15;;
55076;SDS011;40971;44.702;11.030;2022-11-15T07:16:10;47.92;;;17.08;;
55076;SDS011;40971;44.702;11.030;2022-11-15T07:18:37;48.60;;;17.98;;
55076;SDS011;40971;44.702;11.030;2022-11-15T07:21:04;44.92;;;16.38;;
55076;SDS011;40971;44.702;11.030;2022-11-15T07:23:31;56.45;;;16.85;;
55076;SDS011;40971;44.702;11.030;2022-11-15T07:25:57;41.90;;;16.25;;
55076;SDS011;40971;44.702;11.030;2022-11-15T07:28:23;52.78;;;16.30;;
55076;SDS011;40971;44.702;11.030;2022-11-15T07:30:50;79.47;;;19.73;;
55076;SDS011;40971;44.702;11.030;2022-11-15T07:33:15;47.80;;;17.17;;
55076;SDS011;40971;44.702;11.030;2022-11-15T07:35:41;47.33;;;16.85;;
55076;SDS011;40971;44.702;11.030;2022-11-15T07:38:07;50.30;;;15.80;;
55076;SDS011;40971;44.702;11.030;2022-11-15T07:40:33;47.95;;;17.60;;
55076;SDS011;40971;44.702;11.030;2022-11-15T07:43:02;53.55;;;17.70;;
55076;SDS011;40971;44.702;11.030;2022-11-15T07:45:30;60.28;;;18.10;;
55076;SDS011;40971;44.702;11.030;2022-11-15T07:47:56;48.00;;;15.65;;
55076;SDS011;40971;44.702;11.030;2022-11-15T07:50:22;44.70;;;17.40;;
55076;SDS011;40971;44.702;11.030;2022-11-15T07:52:53;52.25;;;18.88;;
55076;SDS011;40971;44.702;11.030;2022-11-15T07:55:22;45.92;;;17.17;;
55076;SDS011;40971;44.702;11.030;2022-11-15T07:57:52;51.65;;;17.55;;
55076;SDS011;40971;44.702;11.030;2022-11-15T08:00:18;47.30;;;16.13;;
55076;SDS011;40971;44.702;11.030;2022-11-15T08:02:44;46.53;;;16.88;;
55076;SDS011;40971;44.702;11.030;2022-11-15T08:05:10;51.80;;;18.15;;
55076;SDS011;40971;44.702;11.030;2022-11-15T08:07:36;40.42;;;16.95;;
55076;SDS011;40971;44.702;11.030;2022-11-15T08:10:16;50.13;;;18.40;;
55076;SDS011;40971;44.702;11.030;2022-11-15T08:12:44;50.80;;;18.55;;
55076;SDS011;40971;44.702;11.030;2022-11-15T08:15:09;41.78;;;16.10;;
55076;SDS011;40971;44.702;11.030;2022-11-15T08:17:37;49.95;;;17.42;;
55076;SDS011;40971;44.702;11.030;2022-11-15T08:20:02;49.10;;;18.10;;
55076;SDS011;40971;44.702;11.030;2022-11-15T08:22:28;52.53;;;18.95;;
55076;SDS011;40971;44.702;11.030;2022-11-15T08:24:53;48.58;;;18.50;;
55076;SDS011;40971;44.702;11.030;2022-11-15T08:27:19;64.20;;;20.33;;
55076;SDS011;40971;44.702;11.030;2022-11-15T08:29:45;52.20;;;17.85;;
55076;SDS011;40971;44.702;11.030;2022-11-15T08:32:11;45.22;;;17.27;;
55076;SDS011;40971;44.702;11.030;2022-11-15T08:34:37;60.45;;;21.00;;
55076;SDS011;40971;44.702;11.030;2022-11-15T08:37:03;46.13;;;18.38;;
55076;SDS011;40971;44.702;11.030;2022-11-15T08:39:29;50.50;;;20.00;;
55076;SDS011;40971;44.702;11.030;2022-11-15T08:41:54;55.45;;;19.55;;
55076;SDS011;40971;44.702;11.030;2022-11-15T08:44:20;57.28;;;19.10;;
55076;SDS011;40971;44.702;11.030;2022-11-15T08:46:46;58.25;;;20.17;;
55076;SDS011;40971;44.702;11.030;2022-11-15T08:49:11;55.35;;;18.55;;
55076;SDS011;40971;44.702;11.030;2022-11-15T08:51:37;56.88;;;18.80;;
55076;SDS011;40971;44.702;11.030;2022-11-15T08:54:02;49.47;;;18.15;;
55076;SDS011;40971;44.702;11.030;2022-11-15T08:56:28;54.78;;;19.00;;
55076;SDS011;40971;44.702;11.030;2022-11-15T08:58:53;48.42;;;17.15;;
55076;SDS011;40971;44.702;11.030;2022-11-15T09:01:19;44.67;;;17.40;;
55076;SDS011;40971;44.702;11.030;2022-11-15T09:03:45;49.88;;;18.77;;
55076;SDS011;40971;44.702;11.030;2022-11-15T09:06:11;48.97;;;19.10;;
55076;SDS011;40971;44.702;11.030;2022-11-15T09:08:37;52.92;;;20.08;;
55076;SDS011;40971;44.702;11.030;2022-11-15T09:11:04;61.40;;;21.08;;
55076;SDS011;40971;44.702;11.030;2022-11-15T09:13:31;52.63;;;19.00;;
55076;SDS011;40971;44.702;11.030;2022-11-15T09:15:57;54.67;;;18.58;;
55076;SDS011;40971;44.702;11.030;2022-11-15T09:18:29;47.22;;;18.77;;
55076;SDS011;40971;44.702;11.030;2022-11-15T09:20:55;48.78;;;19.48;;
55076;SDS011;40971;44.702;11.030;2022-11-15T09:23:22;51.10;;;18.70;;
55076;SDS011;40971;44.702;11.030;2022-11-15T09:25:48;51.28;;;19.20;;
55076;SDS011;40971;44.702;11.030;2022-11-15T09:28:14;52.80;;;20.50;;
55076;SDS011;40971;44.702;11.030;2022-11-15T09:30:39;62.78;;;19.27;;
55076;SDS011;40971;44.702;11.030;2022-11-15T09:33:08;60.85;;;21.55;;
55076;SDS011;40971;44.702;11.030;2022-11-15T09:35:34;58.85;;;19.30;;
55076;SDS011;40971;44.702;11.030;2022-11-15T09:37:59;54.17;;;20.98;;
55076;SDS011;40971;44.702;11.030;2022-11-15T09:40:25;53.97;;;20.65;;
55076;SDS011;40971;44.702;11.030;2022-11-15T09:51:30;57.25;;;20.48;;
55076;SDS011;40971;44.702;11.030;2022-11-15T10:04:44;45.00;;;18.83;;
55076;SDS011;40971;44.702;11.030;2022-11-15T10:09:56;53.10;;;20.08;;
55076;SDS011;40971;44.702;11.030;2022-11-15T10:12:30;58.58;;;20.15;;
55076;SDS011;40971;44.702;11.030;2022-11-15T10:15:03;54.05;;;21.65;;
55076;SDS011;40971;44.702;11.030;2022-11-15T10:17:40;52.03;;;20.88;;
55076;SDS011;40971;44.702;11.030;2022-11-15T10:20:22;58.45;;;20.60;;
55076;SDS011;40971;44.702;11.030;2022-11-15T10:22:53;67.63;;;22.20;;
55076;SDS011;40971;44.702;11.030;2022-11-15T10:25:25;54.97;;;20.33;;
55076;SDS011;40971;44.702;11.030;2022-11-15T10:28:37;55.85;;;20.67;;
55076;SDS011;40971;44.702;11.030;2022-11-15T10:30:52;75.07;;;19.90;;
55076;SDS011;40971;44.702;11.030;2022-11-15T10:33:22;58.53;;;21.83;;
55076;SDS011;40971;44.702;11.030;2022-11-15T10:36:36;55.42;;;20.88;;
55076;SDS011;40971;44.702;11.030;2022-11-15T10:41:21;53.42;;;19.70;;
55076;SDS011;40971;44.702;11.030;2022-11-15T10:44:01;69.75;;;23.67;;
55076;SDS011;40971;44.702;11.030;2022-11-15T10:46:35;65.00;;;21.83;;
55076;SDS011;40971;44.702;11.030;2022-11-15T10:49:12;62.05;;;22.77;;
55076;SDS011;40971;44.702;11.030;2022-11-15T10:54:33;53.85;;;22.05;;
55076;SDS011;40971;44.702;11.030;2022-11-15T10:57:16;77.38;;;23.33;;
55076;SDS011;40971;44.702;11.030;2022-11-15T10:59:48;65.03;;;22.10;;
55076;SDS011;40971;44.702;11.030;2022-11-15T11:04:54;58.10;;;22.45;;
55076;SDS011;40971;44.702;11.030;2022-11-15T11:07:20;65.00;;;24.65;;
55076;SDS011;40971;44.702;11.030;2022-11-15T11:09:56;62.08;;;23.05;;
55076;SDS011;40971;44.702;11.030;2022-11-15T11:12:32;70.97;;;23.60;;
55076;SDS011;40971;44.702;11.030;2022-11-15T11:15:05;51.75;;;21.35;;
55076;SDS011;40971;44.702;11.030;2022-11-15T11:17:47;60.25;;;22.63;;
55076;SDS011;40971;44.702;11.030;2022-11-15T11:28:14;77.13;;;24.52;;
55076;SDS011;40971;44.702;11.030;2022-11-15T11:36:40;61.58;;;23.20;;
55076;SDS011;40971;44.702;11.030;2022-11-15T11:45:02;72.70;;;25.25;;
55076;SDS011;40971;44.702;11.030;2022-11-15T11:47:48;72.80;;;22.30;;
55076;SDS011;40971;44.702;11.030;2022-11-15T11:50:23;63.92;;;21.83;;
55076;SDS011;40971;44.702;11.030;2022-11-15T11:53:01;67.10;;;23.73;;
55076;SDS011;40971;44.702;11.030;2022-11-15T11:55:47;67.00;;;23.92;;
55076;SDS011;40971;44.702;11.030;2022-11-15T12:01:14;65.28;;;23.40;;
55076;SDS011;40971;44.702;11.030;2022-11-15T12:08:49;60.00;;;23.00;;
55076;SDS011;40971;44.702;11.030;2022-11-15T12:12:01;54.63;;;22.95;;
55076;SDS011;40971;44.702;11.030;2022-11-15T12:14:47;59.80;;;23.38;;
55076;SDS011;40971;44.702;11.030;2022-11-15T12:17:17;54.03;;;23.50;;
55076;SDS011;40971;44.702;11.030;2022-11-15T12:19:47;54.45;;;22.20;;
55076;SDS011;40971;44.702;11.030;2022-11-15T12:22:17;55.05;;;23.73;;
55076;SDS011;40971;44.702;11.030;2022-11-15T12:24:57;68.47;;;23.65;;
55076;SDS011;40971;44.702;11.030;2022-11-15T12:29:58;59.13;;;22.10;;
55076;SDS011;40971;44.702;11.030;2022-11-15T12:32:32;55.33;;;21.48;;
55076;SDS011;40971;44.702;11.030;2022-11-15T12:35:03;55.03;;;21.75;;
55076;SDS011;40971;44.702;11.030;2022-11-15T12:37:47;59.42;;;22.92;;
55076;SDS011;40971;44.702;11.030;2022-11-15T12:40:21;54.58;;;20.23;;
55076;SDS011;40971;44.702;11.030;2022-11-15T12:45:35;56.22;;;23.20;;
55076;SDS011;40971;44.702;11.030;2022-11-15T13:07:02;57.40;;;23.52;;
55076;SDS011;40971;44.702;11.030;2022-11-15T13:12:07;53.95;;;22.75;;
55076;SDS011;40971;44.702;11.030;2022-11-15T13:17:42;60.67;;;24.63;;
55076;SDS011;40971;44.702;11.030;2022-11-15T13:30:50;60.58;;;24.40;;
55076;SDS011;40971;44.702;11.030;2022-11-15T13:38:43;66.10;;;26.67;;
55076;SDS011;40971;44.702;11.030;2022-11-15T13:41:19;62.42;;;25.55;;
55076;SDS011;40971;44.702;11.030;2022-11-15T13:43:47;54.55;;;22.83;;
55076;SDS011;40971;44.702;11.030;2022-11-15T13:46:16;60.47;;;24.05;;
55076;SDS011;40971;44.702;11.030;2022-11-15T13:48:44;48.72;;;21.95;;
55076;SDS011;40971;44.702;11.030;2022-11-15T13:51:19;44.53;;;19.52;;
55076;SDS011;40971;44.702;11.030;2022-11-15T13:54:03;44.92;;;19.10;;
55076;SDS011;40971;44.702;11.030;2022-11-15T13:56:36;62.10;;;20.50;;
55076;SDS011;40971;44.702;11.030;2022-11-15T13:59:36;53.13;;;21.02;;
55076;SDS011;40971;44.702;11.030;2022-11-15T14:01:59;50.28;;;20.48;;
55076;SDS011;40971;44.702;11.030;2022-11-15T14:04:28;45.25;;;18.27;;
55076;SDS011;40971;44.702;11.030;2022-11-15T14:06:58;51.20;;;21.50;;
55076;SDS011;40971;44.702;11.030;2022-11-15T14:09:38;51.72;;;20.40;;
55076;SDS011;40971;44.702;11.030;2022-11-15T14:15:45;45.45;;;18.67;;
55076;SDS011;40971;44.702;11.030;2022-11-15T14:18:02;60.72;;;20.75;;
55076;SDS011;40971;44.702;11.030;2022-11-15T14:20:30;47.35;;;19.88;;
55076;SDS011;40971;44.702;11.030;2022-11-15T14:22:58;55.60;;;21.15;;
55076;SDS011;40971;44.702;11.030;2022-11-15T14:25:29;44.88;;;19.83;;
55076;SDS011;40971;44.702;11.030;2022-11-15T14:30:53;50.65;;;19.98;;
55076;SDS011;40971;44.702;11.030;2022-11-15T14:33:28;55.25;;;21.33;;
55076;SDS011;40971;44.702;11.030;2022-11-15T14:35:55;52.70;;;20.77;;
55076;SDS011;40971;44.702;11.030;2022-11-15T14:38:22;39.53;;;17.85;;
55076;SDS011;40971;44.702;11.030;2022-11-15T14:40:49;44.17;;;18.25;;
55076;SDS011;40971;44.702;11.030;2022-11-15T14:43:15;48.78;;;19.15;;
55076;SDS011;40971;44.702;11.030;2022-11-15T14:45:41;49.13;;;20.27;;
55076;SDS011;40971;44.702;11.030;2022-11-15T14:48:07;54.50;;;20.55;;
55076;SDS011;40971;44.702;11.030;2022-11-15T14:50:33;51.47;;;20.67;;
55076;SDS011;40971;44.702;11.030;2022-11-15T14:52:59;59.78;;;22.92;;
55076;SDS011;40971;44.702;11.030;2022-11-15T14:55:26;55.95;;;22.25;;
55076;SDS011;40971;44.702;11.030;2022-11-15T14:57:53;53.92;;;21.52;;
55076;SDS011;40971;44.702;11.030;2022-11-15T15:00:20;59.10;;;21.75;;
55076;SDS011;40971;44.702;11.030;2022-11-15T15:02:48;61.08;;;22.20;;
55076;SDS011;40971;44.702;11.030;2022-11-15T15:07:45;61.97;;;25.98;;
55076;SDS011;40971;44.702;11.030;2022-11-15T15:10:11;68.43;;;25.40;;
55076;SDS011;40971;44.702;11.030;2022-11-15T15:12:38;70.05;;;25.20;;
55076;SDS011;40971;44.702;11.030;2022-11-15T15:15:04;63.47;;;24.08;;
55076;SDS011;40971;44.702;11.030;2022-11-15T15:17:30;66.68;;;24.08;;
55076;SDS011;40971;44.702;11.030;2022-11-15T15:19:55;70.53;;;24.33;;
55076;SDS011;40971;44.702;11.030;2022-11-15T15:22:21;62.60;;;23.75;;
55076;SDS011;40971;44.702;11.030;2022-11-15T15:24:50;64.95;;;25.63;;
55076;SDS011;40971;44.702;11.030;2022-11-15T15:27:16;65.13;;;25.00;;
55076;SDS011;40971;44.702;11.030;2022-11-15T15:29:41;68.03;;;25.85;;
55076;SDS011;40971;44.702;11.030;2022-11-15T15:32:07;69.40;;;24.75;;
55076;SDS011;40971;44.702;11.030;2022-11-15T15:34:33;63.03;;;25.40;;
55076;SDS011;40971;44.702;11.030;2022-11-15T15:39:48;65.28;;;24.40;;
55076;SDS011;40971;44.702;11.030;2022-11-15T15:42:14;71.43;;;26.00;;
55076;SDS011;40971;44.702;11.030;2022-11-15T15:44:39;67.45;;;25.90;;
55076;SDS011;40971;44.702;11.030;2022-11-15T15:47:23;72.32;;;25.55;;
55076;SDS011;40971;44.702;11.030;2022-11-15T15:49:49;64.38;;;23.23;;
55076;SDS011;40971;44.702;11.030;2022-11-15T15:52:15;67.88;;;22.02;;
55076;SDS011;40971;44.702;11.030;2022-11-15T15:54:41;62.92;;;23.73;;
55076;SDS011;40971;44.702;11.030;2022-11-15T15:57:07;57.45;;;23.02;;
55076;SDS011;40971;44.702;11.030;2022-11-15T15:59:35;55.22;;;20.92;;
55076;SDS011;40971;44.702;11.030;2022-11-15T16:02:01;64.25;;;23.27;;
55076;SDS011;40971;44.702;11.030;2022-11-15T16:04:26;53.47;;;21.05;;
55076;SDS011;40971;44.702;11.030;2022-11-15T16:06:54;54.55;;;23.38;;
55076;SDS011;40971;44.702;11.030;2022-11-15T16:09:23;64.93;;;23.15;;
55076;SDS011;40971;44.702;11.030;2022-11-15T16:12:09;58.08;;;22.63;;
55076;SDS011;40971;44.702;11.030;2022-11-15T16:14:34;61.90;;;21.95;;
55076;SDS011;40971;44.702;11.030;2022-11-15T16:17:00;52.95;;;20.50;;
55076;SDS011;40971;44.702;11.030;2022-11-15T16:19:25;59.95;;;23.33;;
55076;SDS011;40971;44.702;11.030;2022-11-15T16:21:51;66.20;;;22.95;;
55076;SDS011;40971;44.702;11.030;2022-11-15T16:24:19;54.75;;;20.90;;
55076;SDS011;40971;44.702;11.030;2022-11-15T16:26:48;65.75;;;23.15;;
55076;SDS011;40971;44.702;11.030;2022-11-15T16:29:15;49.78;;;21.27;;
55076;SDS011;40971;44.702;11.030;2022-11-15T16:31:40;58.63;;;21.80;;
55076;SDS011;40971;44.702;11.030;2022-11-15T16:34:06;56.65;;;22.00;;
55076;SDS011;40971;44.702;11.030;2022-11-15T16:36:34;57.95;;;22.52;;
55076;SDS011;40971;44.702;11.030;2022-11-15T16:39:00;61.72;;;23.08;;
55076;SDS011;40971;44.702;11.030;2022-11-15T16:41:29;56.38;;;21.83;;
55076;SDS011;40971;44.702;11.030;2022-11-15T16:43:55;60.60;;;21.13;;
55076;SDS011;40971;44.702;11.030;2022-11-15T16:46:21;64.20;;;24.60;;
55076;SDS011;40971;44.702;11.030;2022-11-15T16:48:48;54.55;;;21.92;;
55076;SDS011;40971;44.702;11.030;2022-11-15T16:51:15;60.72;;;24.02;;
55076;SDS011;40971;44.702;11.030;2022-11-15T16:53:41;67.47;;;25.83;;
55076;SDS011;40971;44.702;11.030;2022-11-15T16:56:17;67.30;;;25.38;;